Saratoga, WY

10:26 AM MDT on August 20, 2014 (GMT -0600)
Elk Mountain | Change Station
CLOSE
Current Station
Airport
Location: Elk Mountain,
Elevation: 7300 ft
Nearby Weather Stations

Elev 7300 ft 41.73 °N, 106.46 °W | Updated 11 minutes ago

Overcast
Overcast
61 °F
Feels Like 61 °F
N
16
Wind Variable Wind from WSW
Gusts 22 mph

Today
High -- | Low -- °F
--% Chance of Precip.
Yesterday
High -- | Low -- °F
Precip. -- in
6:21 AM 7:59 PM
Waning Crescent, 20% visible
Pressure 30.08 in
Visibility 10.0 miles
Clouds Mostly Cloudy 400 ft
Overcast 1800 ft
Dew Point 50 °F
Humidity 68%
Rainfall 0.07 in
Snow Depth 0 in
UV 2 out of 12
Pollen 10.00 out of 12
Air Quality Not available.
Flu Activity Not available.
METAR KEHY 201615Z AUTO 25014G19KT 10SM BKN004 OVC018 16/10 A3008 RMK AO2

More Conditions Fewer Conditions

Pressure 30.08 in
Visibility 10.0 miles
Clouds Mostly Cloudy 400 ft
Overcast 1800 ft
Dew Point 50 °F
Humidity 68%
Rainfall 0.07 in
Snow Depth 0 in
UV 2 out of 12
Pollen 10.00 out of 12
Air Quality Not available.
Flu Activity Not available.
METAR KEHY 201615Z AUTO 25014G19KT 10SM BKN004 OVC018 16/10 A3008 RMK AO2

More Conditions Fewer Conditions

10-Day Weather Forecast

Almanac

Astronomy

Aug. 20, 2014 Rise Set
Actual Time 6:21 AM MDT 7:59 PM MDT
Civil Twilight 5:51 AM MDT 8:28 PM MDT
Nautical Twilight 5:16 AM MDT 9:03 PM MDT
Astronomical Twilight 4:38 AM MDT 9:41 PM MDT
Moon 2:02 AM MDT 4:47 PM MDT
Length of Visible Light 14h 36m
Length of Day
13h 37m
Tomorrow will be 2m 32s shorter.
Waning Crescent, 20% of the Moon is Illuminated
Today
Waning Crescent
Aug 25
New
Sep 2
First Quarter
Sep 8
Full
Sep 15
Last Quarter

Today's Extremes

State Highs State Lows

Community

WunderPhotos

Upload Photos

1,745,688 photos uploaded!

Nearby

Snow Depth

Station Depth Elevation
South Brush Creek 0 in 8440 ft
Webber Springs 0 in 9250 ft
Divide Peak 0 in 8860 ft
Old Battle 0 in 9920 ft
Sage Creek Basin 0 in 7850 ft

Earthquake Activity

City Distance Mag. Time & Date
No recent earthquake activity has been reported nearby.
Minimum magnitude displayed is 2.5.

Coastal Water Temperatures

Place Temperature
No Stations Reporting

Nearby Weather Stations